createdAt,value
2023-09-01T00:02:06.316Z,2.20
2023-09-01T00:07:16.549Z,2.10
2023-09-01T00:09:45.630Z,2.55
2023-09-01T00:15:08.087Z,2.95
2023-09-01T00:17:38.432Z,2.70
2023-09-01T00:20:06.072Z,2.67
2023-09-01T00:25:18.617Z,2.50
2023-09-01T00:27:45.922Z,2.65
2023-09-01T00:30:14.233Z,2.75
2023-09-01T00:32:41.287Z,2.75
2023-09-01T00:35:14.307Z,2.60
2023-09-01T00:37:54.486Z,2.95
2023-09-01T00:40:21.121Z,2.15
2023-09-01T00:42:50.008Z,2.20
2023-09-01T00:45:21.906Z,2.30
2023-09-01T00:47:49.908Z,2.13
2023-09-01T00:50:20.104Z,2.05
2023-09-01T00:52:55.957Z,1.70
2023-09-01T00:55:24.015Z,2.25
2023-09-01T00:57:51.496Z,2.30
2023-09-01T01:00:34.409Z,1.90
2023-09-01T01:03:05.528Z,2.13
2023-09-01T01:05:49.905Z,2.50
2023-09-01T01:08:28.709Z,2.60
2023-09-01T01:11:13.940Z,2.10
2023-09-01T01:13:49.038Z,2.20
2023-09-01T01:16:22.762Z,2.20
2023-09-01T01:21:29.914Z,2.40
2023-09-01T01:24:00.113Z,2.35
2023-09-01T01:26:37.114Z,2.13
2023-09-01T01:29:05.822Z,1.90
2023-09-01T01:34:21.834Z,2.42
2023-09-01T01:37:13.493Z,2.33
2023-09-01T01:39:44.999Z,2.28
2023-09-01T01:42:15.428Z,2.30
2023-09-01T01:44:49.538Z,2.35
2023-09-01T01:52:40.258Z,2.35
2023-09-01T02:08:07.242Z,2.60
2023-09-01T02:10:34.903Z,2.50
2023-09-01T02:15:55.620Z,2.88
2023-09-01T02:18:24.482Z,3.05
2023-09-01T02:23:23.276Z,2.85
2023-09-01T02:25:54.166Z,3.00
2023-09-01T02:28:23.905Z,2.92
2023-09-01T02:30:51.749Z,2.58
2023-09-01T02:33:20.382Z,2.65
2023-09-01T02:35:51.325Z,2.88
2023-09-01T02:38:23.038Z,3.10
2023-09-01T02:40:52.482Z,3.10
2023-09-01T02:43:27.782Z,3.38
2023-09-01T02:45:56.765Z,3.67
2023-09-01T02:48:28.280Z,2.90
2023-09-01T02:50:58.472Z,3.58
2023-09-01T02:53:32.849Z,3.65
2023-09-01T02:55:59.723Z,3.40
2023-09-01T02:58:27.109Z,3.38
2023-09-01T03:00:55.814Z,3.40
2023-09-01T03:03:24.676Z,4.57
2023-09-01T03:05:53.089Z,4.10
2023-09-01T03:11:09.577Z,3.28
2023-09-01T03:13:47.373Z,4.10
2023-09-01T03:16:14.305Z,3.88
2023-09-01T03:18:50.158Z,4.18
2023-09-01T03:21:22.485Z,3.97
2023-09-01T03:23:49.397Z,4.57
2023-09-01T03:26:16.547Z,4.40
2023-09-01T03:28:51.288Z,4.82
2023-09-01T03:31:26.058Z,3.95
2023-09-01T03:34:02.073Z,4.57
2023-09-01T03:36:28.958Z,3.92
2023-09-01T03:39:01.311Z,4.05
2023-09-01T03:41:33.130Z,4.53
2023-09-01T03:44:00.535Z,4.88
2023-09-01T03:51:51.800Z,4.55
2023-09-01T03:54:18.669Z,5.13
2023-09-01T03:56:53.824Z,4.90
2023-09-01T03:59:21.392Z,5.10
2023-09-01T04:01:52.605Z,4.43
2023-09-01T04:04:27.002Z,4.95
2023-09-01T04:06:57.473Z,4.57
2023-09-01T04:09:31.172Z,4.45
2023-09-01T04:11:58.033Z,4.28
2023-09-01T04:14:28.536Z,4.55
2023-09-01T04:16:59.084Z,4.90
2023-09-01T04:19:25.750Z,4.70
2023-09-01T04:22:06.703Z,4.55
2023-09-01T04:24:38.561Z,4.15
2023-09-01T04:27:11.138Z,4.00
2023-09-01T04:29:52.198Z,4.40
2023-09-01T04:32:29.679Z,4.57
2023-09-01T04:34:56.657Z,5.07
2023-09-01T04:37:28.067Z,5.45
2023-09-01T04:40:03.611Z,4.75
2023-09-01T04:42:35.784Z,5.00
2023-09-01T04:45:21.832Z,5.18
2023-09-01T04:47:54.704Z,5.20
2023-09-01T04:50:25.160Z,5.13
2023-09-01T04:52:59.313Z,5.10
2023-09-01T04:55:27.068Z,5.28
2023-09-01T04:57:54.631Z,5.75
2023-09-01T05:00:28.570Z,5.63
2023-09-01T05:02:55.802Z,4.97
2023-09-01T05:05:30.229Z,5.20
2023-09-01T05:08:01.130Z,5.63
2023-09-01T05:24:15.964Z,6.03
2023-09-01T05:29:28.913Z,5.72
2023-09-01T05:32:09.788Z,6.45
2023-09-01T05:37:17.121Z,5.95
2023-09-01T05:42:54.545Z,5.88
2023-09-01T05:45:21.254Z,5.93
2023-09-01T05:47:54.990Z,6.43
2023-09-01T05:50:28.442Z,6.43
2023-09-01T05:52:59.305Z,5.85
2023-09-01T05:55:28.938Z,5.88
2023-09-01T05:58:00.942Z,6.22
2023-09-01T06:00:37.786Z,6.95
2023-09-01T06:03:06.569Z,5.93
2023-09-01T06:08:30.447Z,5.35
2023-09-01T06:11:27.709Z,6.20
2023-09-01T06:13:54.607Z,6.15
2023-09-01T06:16:28.758Z,4.47
2023-09-01T06:19:07.154Z,6.57
2023-09-01T06:21:38.854Z,6.05
2023-09-01T06:24:12.069Z,5.40
2023-09-01T06:26:45.886Z,5.80
2023-09-01T06:29:18.805Z,6.05
2023-09-01T06:31:47.767Z,5.78
2023-09-01T06:34:14.545Z,5.63
2023-09-01T06:36:43.621Z,6.50
2023-09-01T06:39:11.405Z,5.82
2023-09-01T06:41:40.116Z,6.32
2023-09-01T06:46:37.234Z,5.57
2023-09-01T06:49:12.040Z,5.75
2023-09-01T06:51:40.600Z,5.35
2023-09-01T06:54:09.806Z,5.57
2023-09-01T06:56:36.597Z,6.10
2023-09-01T06:59:05.071Z,5.20
2023-09-01T07:01:31.812Z,5.55
2023-09-01T07:04:01.383Z,5.00
2023-09-01T07:06:28.758Z,5.85
2023-09-01T07:08:56.273Z,5.65
2023-09-01T07:11:28.888Z,5.93
2023-09-01T07:14:03.705Z,5.90
2023-09-01T07:19:03.483Z,5.07
2023-09-01T07:21:33.904Z,5.32
2023-09-01T07:24:02.227Z,5.30
2023-09-01T07:26:30.575Z,6.35
2023-09-01T07:29:18.510Z,5.43
2023-09-01T07:32:09.278Z,5.38
2023-09-01T07:37:24.346Z,5.05
2023-09-01T07:39:56.266Z,5.13
2023-09-01T07:42:49.368Z,5.28
2023-09-01T07:45:23.516Z,5.30
2023-09-01T07:48:30.661Z,5.32
2023-09-01T07:51:05.333Z,4.60
2023-09-01T07:53:38.319Z,5.22
2023-09-01T07:56:13.519Z,5.45
2023-09-01T08:03:53.441Z,5.50
2023-09-01T08:06:43.952Z,6.30
2023-09-01T08:09:30.848Z,5.68
2023-09-01T08:12:21.429Z,5.40
2023-09-01T08:14:48.089Z,5.25
2023-09-01T08:17:14.900Z,5.70
2023-09-01T08:19:41.848Z,5.13
2023-09-01T08:22:16.462Z,5.13
2023-09-01T08:24:48.601Z,5.00
2023-09-01T08:27:16.756Z,5.50
2023-09-01T08:29:44.590Z,4.72
2023-09-01T08:32:13.157Z,4.90
2023-09-01T08:34:41.879Z,5.28
2023-09-01T08:39:41.692Z,5.00
2023-09-01T08:42:13.447Z,4.75
2023-09-01T08:44:44.498Z,4.60
2023-09-01T08:49:57.528Z,4.70
2023-09-01T08:52:28.975Z,4.53
2023-09-01T08:54:57.770Z,5.28
2023-09-01T09:00:02.479Z,4.43
2023-09-01T09:02:42.409Z,4.93
2023-09-01T09:05:19.270Z,4.97
2023-09-01T09:08:08.414Z,5.45
2023-09-01T09:10:40.408Z,5.25
2023-09-01T09:13:57.027Z,5.40
2023-09-01T09:16:38.793Z,4.93
2023-09-01T09:19:20.615Z,4.93
2023-09-01T09:22:12.957Z,4.78
2023-09-01T09:24:43.459Z,4.78
2023-09-01T09:27:21.617Z,4.68
2023-09-01T09:29:52.348Z,4.95
2023-09-01T09:32:25.062Z,4.78
2023-09-01T09:35:14.459Z,4.22
2023-09-01T09:37:56.767Z,4.70
2023-09-01T09:40:31.355Z,4.55
2023-09-01T09:43:02.453Z,4.35
2023-09-01T09:45:34.296Z,4.50
2023-09-01T09:48:16.997Z,4.65
2023-09-01T09:50:45.207Z,4.32
2023-09-01T09:53:21.027Z,4.38
2023-09-01T09:55:53.400Z,4.85
2023-09-01T09:58:44.342Z,5.05
2023-09-01T10:01:27.736Z,4.57
2023-09-01T10:03:55.983Z,4.30
2023-09-01T10:06:27.971Z,4.30
2023-09-01T10:08:59.097Z,4.22
2023-09-01T10:11:31.219Z,4.28
2023-09-01T10:14:02.944Z,4.70
2023-09-01T10:16:52.582Z,4.38
2023-09-01T10:19:23.606Z,4.03
2023-09-01T10:21:55.480Z,4.25
2023-09-01T10:24:27.846Z,4.22
2023-09-01T10:27:14.153Z,4.60
2023-09-01T10:32:46.888Z,4.25
2023-09-01T11:23:35.248Z,4.82
2023-09-01T11:39:28.051Z,4.70
2023-09-01T11:42:03.876Z,5.57
2023-09-01T11:44:32.939Z,5.47
2023-09-01T11:47:00.454Z,5.65
2023-09-01T11:49:31.513Z,5.57
2023-09-01T11:52:21.560Z,5.80
2023-09-01T11:55:14.800Z,4.70
2023-09-01T11:57:43.406Z,5.63
2023-09-01T12:03:04.891Z,4.47
2023-09-01T12:08:29.424Z,4.85
2023-09-01T12:11:32.553Z,5.00
2023-09-01T12:14:19.922Z,4.97
2023-09-01T12:16:53.814Z,4.93
2023-09-01T12:19:36.711Z,5.70
2023-09-01T12:22:15.676Z,5.10
2023-09-01T12:26:19.876Z,4.70
2023-09-01T12:29:36.234Z,4.85
2023-09-01T12:32:04.272Z,4.95
2023-09-01T12:34:37.870Z,4.93
2023-09-01T12:37:12.432Z,5.18
2023-09-01T12:39:40.973Z,4.95
2023-09-01T12:44:52.218Z,5.22
2023-09-01T12:56:32.672Z,5.20
2023-09-01T12:59:01.324Z,5.30
2023-09-01T13:01:32.350Z,6.13
2023-09-01T13:04:06.768Z,5.30
2023-09-01T13:06:35.076Z,5.57
2023-09-01T13:09:12.504Z,5.90
2023-09-01T13:11:44.649Z,5.35
2023-09-01T13:16:59.544Z,5.18
2023-09-01T13:22:32.006Z,5.22
2023-09-01T13:25:02.004Z,5.53
2023-09-01T13:27:36.432Z,5.20
2023-09-01T13:30:06.474Z,5.38
2023-09-01T13:32:34.681Z,5.38
2023-09-01T13:35:08.071Z,5.90
2023-09-01T13:37:37.909Z,6.00
2023-09-01T13:40:11.141Z,6.05
2023-09-01T13:42:46.038Z,5.88
2023-09-01T13:45:13.602Z,5.40
2023-09-01T13:47:42.997Z,5.32
2023-09-01T14:05:19.082Z,5.35
2023-09-01T14:07:46.213Z,5.50
2023-09-01T14:10:31.292Z,5.30
2023-09-01T14:20:11.627Z,5.55
2023-09-01T14:22:46.135Z,4.78
2023-09-01T14:25:18.206Z,5.18
2023-09-01T14:27:46.916Z,4.88
2023-09-01T14:30:13.674Z,4.78
2023-09-01T14:32:43.406Z,4.82
2023-09-01T14:35:13.432Z,5.10
2023-09-01T14:37:43.090Z,5.60
2023-09-01T14:40:14.390Z,4.88
2023-09-01T14:42:47.106Z,5.03
2023-09-01T14:45:17.379Z,4.90
2023-09-01T14:47:46.630Z,5.18
2023-09-01T14:50:23.124Z,5.50
2023-09-01T14:52:50.817Z,5.18
2023-09-01T14:55:22.185Z,4.03
2023-09-01T15:00:50.522Z,4.40
2023-09-01T15:03:20.811Z,4.93
2023-09-01T15:05:54.208Z,4.72
2023-09-01T15:08:21.601Z,5.35
2023-09-01T15:10:50.406Z,3.83
2023-09-01T15:13:19.413Z,4.00
2023-09-01T15:15:53.035Z,4.88
2023-09-01T15:21:09.227Z,4.82
2023-09-01T15:23:42.276Z,5.32
2023-09-01T15:26:17.380Z,5.75
2023-09-01T15:28:51.523Z,4.90
2023-09-01T15:31:27.928Z,4.90
2023-09-01T15:34:01.123Z,5.00
2023-09-01T15:36:31.609Z,4.32
2023-09-01T15:38:58.529Z,4.45
2023-09-01T15:41:26.258Z,4.53
2023-09-01T15:44:01.525Z,5.00
2023-09-01T15:46:31.305Z,4.88
2023-09-01T15:48:58.233Z,5.00
2023-09-01T15:51:35.090Z,5.30
2023-09-01T15:54:03.613Z,4.30
2023-09-01T15:56:30.954Z,4.95
2023-09-01T15:59:05.496Z,5.15
2023-09-01T16:04:35.737Z,4.78
2023-09-01T16:11:15.546Z,5.10
2023-09-01T16:19:58.681Z,5.15
2023-09-01T16:34:05.428Z,5.32
2023-09-01T16:42:16.404Z,5.75
2023-09-01T16:43:26.354Z,5.15
2023-09-01T16:44:44.730Z,6.07
2023-09-01T16:47:11.573Z,5.53
2023-09-01T16:49:42.779Z,5.63
2023-09-01T16:52:17.992Z,5.63
2023-09-01T16:54:47.425Z,5.43
2023-09-01T16:57:22.639Z,5.35
2023-09-01T16:59:50.415Z,6.40
2023-09-01T17:02:18.070Z,6.13
2023-09-01T17:04:48.613Z,6.00
2023-09-01T17:07:22.173Z,6.20
2023-09-01T17:16:26.327Z,6.38
2023-09-01T17:19:07.711Z,6.40
2023-09-01T17:21:35.175Z,6.18
2023-09-01T17:24:05.045Z,5.78
2023-09-01T17:26:41.785Z,6.10
2023-09-01T17:29:14.140Z,6.07
2023-09-01T17:31:42.208Z,6.30
2023-09-01T17:34:11.607Z,6.68
2023-09-01T17:36:38.130Z,6.75
2023-09-01T17:39:06.320Z,7.18
2023-09-01T17:44:19.383Z,7.57
2023-09-01T17:46:46.956Z,7.38
2023-09-01T17:49:14.470Z,6.03
2023-09-01T17:51:46.216Z,7.53
2023-09-01T17:54:13.414Z,8.00
2023-09-01T17:56:40.305Z,8.02
2023-09-01T17:59:07.208Z,7.95
2023-09-01T18:01:34.891Z,7.25
2023-09-01T18:04:05.231Z,8.75
2023-09-01T18:06:35.102Z,8.65
2023-09-01T18:09:05.172Z,8.95
2023-09-01T18:11:40.277Z,9.70
2023-09-01T18:14:15.331Z,9.00
2023-09-01T18:16:43.557Z,9.02
2023-09-01T18:19:16.234Z,9.13
2023-09-01T18:21:47.706Z,9.25
2023-09-01T18:24:27.400Z,8.05
2023-09-01T18:26:59.435Z,9.75
2023-09-01T18:29:28.158Z,9.43
2023-09-01T18:32:07.817Z,9.82
2023-09-01T18:34:38.938Z,10.27
2023-09-01T18:37:07.570Z,9.10
2023-09-01T18:40:18.385Z,8.70
2023-09-01T18:49:55.907Z,9.85
2023-09-01T18:52:34.229Z,9.57
2023-09-01T18:58:56.482Z,9.27
2023-09-01T19:01:33.304Z,9.93
2023-09-01T19:18:42.173Z,8.68
2023-09-01T19:25:37.337Z,8.98
2023-09-01T19:28:14.072Z,10.23
2023-09-01T19:31:23.761Z,9.93
2023-09-01T19:34:40.277Z,9.98
2023-09-01T19:37:14.452Z,9.40
2023-09-01T19:39:41.266Z,9.48
2023-09-01T19:42:19.107Z,10.80
2023-09-01T19:44:53.942Z,10.32
2023-09-01T19:47:21.474Z,11.10
2023-09-01T19:50:10.300Z,10.15
2023-09-01T19:52:36.980Z,11.82
2023-09-01T19:55:13.439Z,12.57
2023-09-01T19:57:53.108Z,11.45
2023-09-01T20:03:21.185Z,10.68
2023-09-01T20:05:51.857Z,11.70
2023-09-01T20:08:24.839Z,12.40
2023-09-01T20:10:52.163Z,13.63
2023-09-01T20:13:19.269Z,13.68
2023-09-01T20:15:49.236Z,13.80
2023-09-01T20:18:22.289Z,15.20
2023-09-01T20:20:49.380Z,15.15
2023-09-01T20:23:16.517Z,15.48
2023-09-01T20:25:48.895Z,15.40
2023-09-01T20:28:19.550Z,15.38
2023-09-01T20:30:47.846Z,14.98
2023-09-01T20:33:15.540Z,15.07
2023-09-01T20:35:44.291Z,15.95
2023-09-01T20:40:40.922Z,15.00
2023-09-01T20:43:08.326Z,16.23
2023-09-01T20:45:43.076Z,16.52
2023-09-01T20:50:42.904Z,15.93
2023-09-01T20:53:10.112Z,16.25
2023-09-01T20:55:41.250Z,16.77
2023-09-01T21:03:56.268Z,17.52
2023-09-01T21:06:28.619Z,16.55
2023-09-01T21:08:55.328Z,17.25
2023-09-01T21:11:29.195Z,17.80
2023-09-01T21:13:59.444Z,18.23
2023-09-01T21:16:27.579Z,17.23
2023-09-01T21:18:55.217Z,18.13
2023-09-01T21:21:29.529Z,17.15
2023-09-01T21:23:56.661Z,17.55
2023-09-01T21:29:10.845Z,18.88
2023-09-01T21:31:40.833Z,18.88
2023-09-01T21:34:09.125Z,19.05
2023-09-01T21:36:44.560Z,18.15
2023-09-01T21:39:11.813Z,18.75
2023-09-01T21:41:39.505Z,18.42
2023-09-01T21:44:07.995Z,19.27
2023-09-01T21:46:39.901Z,18.13
2023-09-01T21:49:12.483Z,18.20
2023-09-01T21:51:47.274Z,18.98
2023-09-01T21:56:47.726Z,17.50
2023-09-01T21:59:15.659Z,19.00
2023-09-01T22:01:42.998Z,17.20
2023-09-01T22:04:13.181Z,18.65
2023-09-01T22:09:29.021Z,18.83
2023-09-01T22:11:56.152Z,19.30
2023-09-01T22:14:23.133Z,17.95
2023-09-01T22:16:56.240Z,19.40
2023-09-01T22:19:25.805Z,19.13
2023-09-01T22:21:56.048Z,20.67
2023-09-01T22:24:38.863Z,19.15
2023-09-01T22:27:05.883Z,19.05
2023-09-01T22:29:37.738Z,18.52
2023-09-01T22:32:12.403Z,19.70
2023-09-01T22:34:40.608Z,19.17
2023-09-01T22:37:15.071Z,19.45
2023-09-01T22:39:42.164Z,19.50
2023-09-01T22:42:44.304Z,19.38
2023-09-01T22:47:55.738Z,18.92
2023-09-01T22:50:24.800Z,19.38
2023-09-01T22:52:55.330Z,20.08
2023-09-01T22:55:37.023Z,17.58
2023-09-01T22:58:04.981Z,19.67
2023-09-01T23:00:35.661Z,18.80
2023-09-01T23:03:07.788Z,20.05
2023-09-01T23:05:35.431Z,18.98
2023-09-01T23:08:07.861Z,19.48
2023-09-01T23:10:36.692Z,18.00
2023-09-01T23:13:03.311Z,19.45
2023-09-01T23:15:29.892Z,19.55
2023-09-01T23:18:01.363Z,18.48
2023-09-01T23:20:28.189Z,19.05
2023-09-01T23:22:56.675Z,18.85
2023-09-01T23:25:25.207Z,18.63
2023-09-01T23:27:58.736Z,18.50
2023-09-01T23:30:26.185Z,19.45
2023-09-01T23:32:53.980Z,18.83
2023-09-01T23:35:23.014Z,18.48
2023-09-01T23:37:50.811Z,18.48
2023-09-01T23:40:24.247Z,18.92
2023-09-01T23:42:51.360Z,19.42
2023-09-01T23:45:21.813Z,18.48
2023-09-01T23:47:53.499Z,18.23
2023-09-01T23:50:20.762Z,18.60
2023-09-01T23:52:52.780Z,18.17
2023-09-01T23:55:25.209Z,17.80
2023-09-01T23:57:59.736Z,18.30
